Airfield :
LOGIN :

Register | Disclaimer

   EN    FR    IT 

 










Legend :    VFR   Marginal VFR   IFR   Intensive IFR   Very Intensive IFR
Visi :
Ceiling :
>= 8 km
>= 3000ft
5 to 8 km
1000 to 3000 ft
1500m to 5 km
500 to 1000 ft
800 to 1500m
200 to 500 ft
< 800m
< 200 ft
Symbols :   Thunderstorms  Fog  Heavy snow  Heavy precipitations  Wind > 20 kt
SIGMETs :     Misc.  Thunderstorms  Icing  Turbulence  Mountain Waves  Volcanic Ashes







- Airport Elevation : 1300 ft
- IATA code : LIG
- Download approach charts


LFBL - Limoges

CURRENT METAR :
  • 200730Z AUTO 23004KT 200V280 6000 2300 OVC004 14/14 Q1017 BECMG BKN012

EXPIRED METARs :
  • 200700Z AUTO 23005KT 200V260 9999 OVC004 14/13 Q1016 BECMG OVC008
  • 200630Z AUTO 21005KT 9999 OVC005 14/13 Q1016 NOSIG
  • 200600Z AUTO 20006KT 9999 OVC006 14/13 Q1016 NOSIG
  • 200530Z AUTO 20006KT 9999 OVC007 14/13 Q1016 BECMG BKN030
  • 200500Z AUTO 20003KT 9999 OVC007 14/13 Q1016 BECMG BKN030
  • 200430Z AUTO 21004KT 190V250 9999 BKN009 BKN018 OVC032 13/12 Q1016 BECMG BKN030

TAF AMD TAF LFBL
Valid from the 20 at 07:00 until the 21 at 06:00 UTC


200702Z 2007/2106 20004KT 9999 OVC008
TEMPO 2007/2008 OVC004
BECMG 2009/2010 BKN012
TEMPO 2010/2011 BKN020
BECMG 2012/2014 SCT030
BECMG 2015/2017 34007KT CAVOK
BECMG 2023/2101 05007KT
ATIS : +33 5 55 48 40 37
No reported NOTAMs for that airfield.



MET'MAP, your aeronautical weather chart ! - Copyright ORBIFLY December 2007 - Disclaimer

ORBIFLY MET'MAP TEAM :

Programming & Development : Alexandra Zaïnal
Concept & Development : Baudouin d'Aumeries
Co-Development & Prog : Marc-Olivier Méhu
Technical & hardware support : Manuel Goepfert

Contact : metmap@orbifly.com




SOURCES & CREDITS :

   NOAA